Time;durP1;ratioP1;P1;durP2;ratioP2;P2;SDS_P1;SDS_P2;PMS_P1;PMS_P2;Temp;Humidity;BMP_temperature;BMP_pressure;BME280_temperature;BME280_humidity;BME280_pressure;Samples;Min_cycle;Max_cycle;Signal;HPM_P1;HPM_P2
2023/12/07 00:01:21;;;;;;;11.32;5.95;;;3.40;99.90;;;;;;4799668;29;20121;-78
2023/12/07 00:03:47;;;;;;;11.25;6.43;;;3.40;99.90;;;;;;4814415;29;20388;-77
2023/12/07 00:06:13;;;;;;;11.98;6.50;;;3.40;99.90;;;;;;4800013;29;20053;-78
2023/12/07 00:08:38;;;;;;;11.77;6.20;;;3.50;99.90;;;;;;4828909;29;20038;-77
2023/12/07 00:11:04;;;;;;;9.88;5.82;;;3.50;99.90;;;;;;4832787;29;20087;-79
2023/12/07 00:13:30;;;;;;;9.52;5.68;;;3.50;99.90;;;;;;4832829;29;20328;-78
2023/12/07 00:15:55;;;;;;;9.52;6.18;;;3.50;99.90;;;;;;4831973;29;20092;-77
2023/12/07 00:18:21;;;;;;;10.60;6.10;;;3.50;99.90;;;;;;4833028;29;20098;-77
2023/12/07 00:20:47;;;;;;;10.35;5.82;;;3.50;99.90;;;;;;4832535;29;20053;-78
2023/12/07 00:23:12;;;;;;;9.77;5.75;;;3.50;99.90;;;;;;4838438;29;20061;-78
2023/12/07 00:25:45;;;;;;;9.43;5.32;;;3.50;99.90;;;;;;4841023;29;20030;-78
2023/12/07 00:28:14;;;;;;;9.93;5.57;;;3.60;99.90;;;;;;4860347;29;20060;-78
2023/12/07 00:30:46;;;;;;;10.43;5.95;;;3.60;99.90;;;;;;4930036;29;20048;-78
2023/12/07 00:33:11;;;;;;;10.93;5.90;;;3.60;99.90;;;;;;4945690;29;20317;-79
2023/12/07 00:35:43;;;;;;;10.60;5.32;;;3.60;99.90;;;;;;4946553;29;20063;-78
2023/12/07 00:38:09;;;;;;;8.95;5.25;;;3.70;99.90;;;;;;4945946;29;20035;-78
2023/12/07 00:40:36;;;;;;;9.88;6.00;;;3.70;99.90;;;;;;4950108;28;20205;-77
2023/12/07 00:43:03;;;;;;;10.68;5.18;;;3.70;99.90;;;;;;4928878;29;20110;-78
2023/12/07 00:45:29;;;;;;;9.55;5.75;;;3.70;99.90;;;;;;4946255;29;20034;-78
2023/12/07 00:47:54;;;;;;;8.88;5.28;;;3.70;99.90;;;;;;4929016;29;20032;-78
2023/12/07 00:50:26;;;;;;;6.90;4.65;;;3.70;99.90;;;;;;4946591;29;20028;-79
2023/12/07 00:52:52;;;;;;;10.82;4.75;;;3.70;99.90;;;;;;4945928;29;20217;-78
2023/12/07 00:55:20;;;;;;;10.50;6.78;;;3.80;99.90;;;;;;4945950;29;20039;-78
2023/12/07 00:57:52;;;;;;;10.05;5.38;;;3.80;99.90;;;;;;4929138;29;20309;-78
2023/12/07 01:00:23;;;;;;;12.35;6.22;;;3.80;99.90;;;;;;4949928;28;20032;-78
2023/12/07 01:02:52;;;;;;;11.43;6.28;;;3.80;99.90;;;;;;4945904;29;20155;-78
2023/12/07 01:05:20;;;;;;;11.18;6.55;;;3.80;99.90;;;;;;4945958;29;20250;-77
2023/12/07 01:07:46;;;;;;;9.75;6.35;;;3.70;99.90;;;;;;4928417;29;20035;-77
2023/12/07 01:10:12;;;;;;;11.35;6.47;;;3.70;99.90;;;;;;4946372;29;20254;-77
2023/12/07 01:12:37;;;;;;;11.07;6.38;;;3.60;99.90;;;;;;4946532;29;20043;-78
2023/12/07 01:15:04;;;;;;;11.45;6.30;;;3.50;99.90;;;;;;4946557;29;20043;-78
2023/12/07 01:17:30;;;;;;;10.50;6.82;;;3.50;99.90;;;;;;4949357;28;20040;-80
2023/12/07 01:23:28;;;;;;;12.85;7.28;;;3.30;99.90;;;;;;4946321;29;20055;-78
2023/12/07 01:25:56;;;;;;;14.02;7.57;;;3.40;99.90;;;;;;4928913;29;20032;-78
2023/12/07 01:28:22;;;;;;;12.40;6.80;;;3.30;99.90;;;;;;4949061;29;20043;-78
2023/12/07 06:55:33;;;;;;;18.48;9.85;;;-0.20;99.90;;;;;;5588759;23;20171;-79
2023/12/07 06:58:24;;;;;;;17.88;10.55;;;-0.30;99.90;;;;;;4929640;29;20381;-79
2023/12/07 07:00:50;;;;;;;20.50;10.52;;;-0.30;99.90;;;;;;4911250;29;20036;-77
2023/12/07 07:05:59;;;;;;;17.35;9.18;;;-0.20;99.90;;;;;;5098192;23;20048;-79
2023/12/07 07:08:45;;;;;;;18.15;9.63;;;-0.30;99.90;;;;;;4929669;29;20031;-80
2023/12/07 07:11:50;;;;;;;18.75;10.98;;;-0.30;99.90;;;;;;4914290;29;20046;-79
2023/12/07 07:14:41;;;;;;;19.90;9.98;;;-0.30;99.90;;;;;;4870865;29;20037;-78
2023/12/07 07:17:24;;;;;;;21.05;10.77;;;-0.30;99.90;;;;;;4884588;29;20057;-79
2023/12/07 07:19:54;;;;;;;18.95;11.15;;;-0.20;99.90;;;;;;4889306;29;20025;-81
2023/12/07 07:22:19;;;;;;;19.92;10.73;;;-0.20;99.90;;;;;;4859761;29;20037;-78
2023/12/07 07:24:52;;;;;;;19.15;10.55;;;-0.10;99.90;;;;;;4871078;29;20021;-82
2023/12/07 07:27:18;;;;;;;22.10;11.07;;;-0.10;99.90;;;;;;4869967;29;20072;-78
2023/12/07 07:29:44;;;;;;;19.58;11.13;;;0.00;99.90;;;;;;4887944;29;20049;-81
2023/12/07 07:32:10;;;;;;;20.63;12.40;;;0.10;99.90;;;;;;4888247;29;20049;-79
2023/12/07 07:34:37;;;;;;;22.70;12.15;;;0.20;99.90;;;;;;4888585;29;20098;-80
2023/12/07 07:37:03;;;;;;;21.40;11.50;;;0.30;99.90;;;;;;4872836;29;20041;-78
2023/12/07 07:39:28;;;;;;;20.92;12.00;;;0.40;99.90;;;;;;4873192;29;20122;-79
2023/12/07 07:42:07;;;;;;;22.30;11.27;;;0.40;99.90;;;;;;4882793;29;20048;-78
2023/12/07 07:44:34;;;;;;;20.45;11.35;;;0.50;99.90;;;;;;4872306;29;20033;-78
2023/12/07 07:47:08;;;;;;;21.52;11.95;;;0.50;99.90;;;;;;4889136;29;20060;-78
2023/12/07 07:49:34;;;;;;;21.65;11.40;;;0.60;99.90;;;;;;4946311;29;20057;-80
2023/12/07 07:52:06;;;;;;;22.70;12.02;;;0.60;99.90;;;;;;4945539;29;20063;-79
2023/12/07 07:54:35;;;;;;;23.20;11.82;;;0.70;99.90;;;;;;4946032;29;20027;-78
2023/12/07 07:57:06;;;;;;;19.77;11.38;;;0.70;99.90;;;;;;4928969;29;20039;-79
2023/12/07 07:59:32;;;;;;;22.48;11.43;;;0.70;99.90;;;;;;4945593;29;20035;-78
2023/12/07 08:01:58;;;;;;;20.27;10.95;;;0.80;99.90;;;;;;4928921;29;20095;-80
2023/12/07 08:04:24;;;;;;;20.20;10.65;;;0.80;99.90;;;;;;4929336;29;20044;-80
2023/12/07 08:07:15;;;;;;;18.17;10.85;;;0.80;99.90;;;;;;4945053;29;20035;-79
2023/12/07 08:09:41;;;;;;;19.83;10.98;;;0.90;99.90;;;;;;4946089;29;20032;-79
2023/12/07 08:12:08;;;;;;;21.77;11.15;;;0.90;99.90;;;;;;4942513;29;20035;-79
2023/12/07 08:14:37;;;;;;;19.67;11.02;;;1.00;99.90;;;;;;4945960;29;20086;-79
2023/12/07 08:17:09;;;;;;;19.13;10.68;;;1.10;99.90;;;;;;4944643;29;20086;-79
2023/12/07 08:19:44;;;;;;;20.00;11.23;;;1.10;99.90;;;;;;4943769;29;20313;-79
2023/12/07 08:22:10;;;;;;;20.50;11.65;;;1.20;99.90;;;;;;4943924;29;20043;-79
2023/12/07 08:24:41;;;;;;;21.58;11.07;;;1.30;99.90;;;;;;4945440;29;20196;-78
2023/12/07 08:27:07;;;;;;;18.23;10.77;;;1.30;99.90;;;;;;4944419;29;20089;-79
2023/12/07 08:29:42;;;;;;;18.52;11.02;;;1.30;99.90;;;;;;4937955;29;20206;-79
2023/12/07 08:32:29;;;;;;;19.00;11.27;;;1.40;99.90;;;;;;4925924;29;20309;-78
2023/12/07 08:34:56;;;;;;;20.48;11.45;;;1.40;99.90;;;;;;4914494;29;20039;-78
2023/12/07 08:37:22;;;;;;;21.70;10.68;;;1.50;99.90;;;;;;4925150;29;20051;-78
2023/12/07 08:39:48;;;;;;;18.98;11.35;;;1.50;99.90;;;;;;4926408;29;20210;-79
2023/12/07 08:42:14;;;;;;;21.63;10.40;;;1.60;99.90;;;;;;4940140;29;20039;-78
2023/12/07 08:44:40;;;;;;;19.20;10.80;;;1.70;99.90;;;;;;4936769;29;20040;-78
2023/12/07 08:47:12;;;;;;;18.75;11.18;;;1.70;99.90;;;;;;4942660;29;20023;-78
2023/12/07 08:49:38;;;;;;;20.00;11.73;;;1.70;99.90;;;;;;4921718;29;20028;-77
2023/12/07 08:52:19;;;;;;;19.50;12.13;;;1.70;99.90;;;;;;4940571;29;20421;-78
2023/12/07 08:54:44;;;;;;;18.95;11.45;;;1.80;99.90;;;;;;4941470;29;20132;-78
2023/12/07 08:57:10;;;;;;;20.80;11.45;;;1.90;99.90;;;;;;4926314;29;20104;-78
2023/12/07 08:59:39;;;;;;;19.20;11.55;;;1.90;99.90;;;;;;4926537;29;20301;-78
2023/12/07 09:02:05;;;;;;;21.02;12.02;;;2.00;99.90;;;;;;4926702;29;20131;-79
2023/12/07 09:14:09;;;;;;;21.40;11.27;;;2.20;99.90;;;;;;5088161;23;20051;-80
2023/12/07 09:16:35;;;;;;;22.50;12.10;;;2.30;99.90;;;;;;4947655;29;20035;-81
2023/12/07 09:19:21;;;;;;;19.90;12.13;;;2.40;99.90;;;;;;4948136;29;20229;-81
2023/12/07 09:21:46;;;;;;;20.17;11.68;;;2.40;99.90;;;;;;4942949;29;20274;-80
2023/12/07 09:24:32;;;;;;;19.48;11.88;;;2.40;99.90;;;;;;4868186;29;20044;-79
2023/12/07 09:27:46;;;;;;;26.58;13.90;;;2.50;99.90;;;;;;4884318;29;20037;-80
2023/12/07 09:30:20;;;;;;;20.73;11.32;;;2.70;99.90;;;;;;4849416;29;20048;-79
2023/12/07 09:33:19;;;;;;;18.60;10.93;;;2.70;99.90;;;;;;4849503;29;20046;-79
2023/12/07 09:35:44;;;;;;;19.85;11.48;;;2.80;99.90;;;;;;4849778;29;20042;-80
2023/12/07 09:38:28;;;;;;;20.92;11.30;;;2.80;99.90;;;;;;4868870;29;20059;-80
2023/12/07 09:41:06;;;;;;;19.75;11.00;;;2.80;99.90;;;;;;4886244;29;20326;-80
2023/12/07 09:43:53;;;;;;;21.00;11.63;;;2.90;99.90;;;;;;4870691;29;20053;-79
2023/12/07 09:50:27;;;;;;;15.02;9.02;;;3.10;99.90;;;;;;4890255;29;20421;-79
2023/12/07 09:53:19;;;;;;;;;;;;;;;;;;;;;
2023/12/07 09:56:29;;;;;;;16.48;9.45;;;3.30;99.90;;;;;;4889791;29;20133;-80
2023/12/07 10:02:46;;;;;;;15.93;8.73;;;3.50;99.90;;;;;;4944412;29;20027;-79
2023/12/07 10:12:58;;;;;;;13.40;7.43;;;3.80;99.90;;;;;;5086236;23;20456;-79
2023/12/07 10:15:25;;;;;;;13.23;7.30;;;3.90;99.90;;;;;;4947252;29;20103;-79
2023/12/07 10:18:14;;;;;;;13.38;7.72;;;3.90;99.90;;;;;;4976558;28;20043;-79
2023/12/07 10:21:41;;;;;;;13.40;7.97;;;4.00;99.90;;;;;;4977583;28;20025;-78
2023/12/07 10:24:43;;;;;;;12.40;7.35;;;4.10;99.90;;;;;;4967612;29;20082;-81
2023/12/07 10:27:21;;;;;;;13.70;7.80;;;4.20;99.90;;;;;;4950740;29;20063;-81
2023/12/07 10:30:02;;;;;;;14.13;8.20;;;4.30;99.90;;;;;;4958770;29;20114;-82
2023/12/07 10:32:29;;;;;;;17.02;8.13;;;4.30;99.90;;;;;;4945987;29;20034;-81
2023/12/07 10:35:01;;;;;;;11.95;7.43;;;4.40;99.90;;;;;;4959487;29;20034;-80
2023/12/07 10:37:42;;;;;;;15.23;8.25;;;4.60;99.90;;;;;;4967839;29;20071;-80
2023/12/07 10:47:47;;;;;;;12.05;6.57;;;5.40;99.60;;;;;;4958984;29;20499;-79
2023/12/07 10:51:08;;;;;;;12.57;7.80;;;5.80;98.40;;;;;;4931421;29;20032;-80
2023/12/07 10:57:11;;;;;;;9.05;5.82;;;6.80;96.00;;;;;;4968364;29;20034;-82
2023/12/07 11:00:08;;;;;;;9.25;5.95;;;7.30;94.60;;;;;;4965619;28;20019;-79
2023/12/07 11:03:10;;;;;;;10.40;5.72;;;7.70;93.90;;;;;;4965429;28;20035;-81
2023/12/07 11:05:36;;;;;;;12.60;6.55;;;8.40;92.80;;;;;;4966650;29;20019;-79
2023/12/07 11:08:52;;;;;;;14.20;7.20;;;9.00;91.00;;;;;;4961486;29;20051;-79
2023/12/07 11:11:37;;;;;;;14.73;7.03;;;9.60;89.40;;;;;;4962024;29;20098;-79
2023/12/07 11:14:11;;;;;;;17.70;6.88;;;9.80;87.00;;;;;;4948855;29;20054;-79
2023/12/07 11:16:42;;;;;;;8.68;5.20;;;10.00;85.70;;;;;;4948973;29;20054;-81
2023/12/07 11:19:32;;;;;;;7.30;4.97;;;10.20;84.80;;;;;;4949186;29;20075;-81
2023/12/07 11:22:17;;;;;;;8.55;5.40;;;10.50;83.90;;;;;;4966413;29;20031;-81
2023/12/07 11:25:32;;;;;;;10.48;5.00;;;11.20;82.70;;;;;;4966715;29;20054;-82
2023/12/07 11:28:04;;;;;;;8.30;5.22;;;10.70;81.80;;;;;;4943962;29;20031;-80
2023/12/07 11:34:17;;;;;;;;;;;;;;;;;;;;;
2023/12/07 11:38:06;;;;;;;8.88;4.97;;;12.10;77.20;;;;;;4896677;29;20398;-79
2023/12/07 11:40:40;;;;;;;8.52;5.40;;;12.70;75.80;;;;;;4905772;29;20085;-75
2023/12/07 11:43:06;;;;;;;7.95;5.03;;;13.00;74.30;;;;;;4906606;29;20060;-79
2023/12/07 11:45:48;;;;;;;8.75;5.20;;;13.30;73.20;;;;;;4901892;29;20081;-81
2023/12/07 11:48:24;;;;;;;8.55;5.13;;;13.70;71.40;;;;;;4887893;29;20108;-77
2023/12/07 11:51:04;;;;;;;6.93;5.07;;;13.10;71.40;;;;;;4887612;29;20368;-80
2023/12/07 11:53:39;;;;;;;5.43;4.07;;;13.00;71.40;;;;;;4871959;29;20148;-78
2023/12/07 11:56:26;;;;;;;9.30;5.13;;;13.00;70.00;;;;;;4887526;29;20153;-81
2023/12/07 12:02:23;;;;;;;7.07;4.68;;;12.80;70.20;;;;;;4851970;29;20073;-80
2023/12/07 12:05:14;;;;;;;6.80;4.65;;;13.00;70.30;;;;;;4888188;29;20043;-80
2023/12/07 12:07:46;;;;;;;6.70;4.60;;;14.00;69.90;;;;;;4911974;29;20047;-79
2023/12/07 12:10:49;;;;;;;;;;;;;;;;;;;;;
2023/12/07 12:13:49;;;;;;;10.27;5.63;;;14.90;67.60;;;;;;4959622;29;20167;-78
2023/12/07 12:16:49;;;;;;;11.98;6.40;;;14.80;65.80;;;;;;4952180;29;20101;-79
2023/12/07 12:19:38;;;;;;;9.10;5.03;;;13.70;67.60;;;;;;4947990;29;20082;-77
2023/12/07 12:22:06;;;;;;;8.60;5.00;;;12.90;68.90;;;;;;4966054;29;20031;-78
2023/12/07 12:24:39;;;;;;;11.40;5.35;;;12.40;69.40;;;;;;4965423;29;20344;-79
2023/12/07 12:27:05;;;;;;;9.38;4.90;;;12.50;70.00;;;;;;4948398;29;20102;-79
2023/12/07 12:29:32;;;;;;;9.88;5.22;;;12.30;70.70;;;;;;4948205;29;20023;-79
2023/12/07 12:31:57;;;;;;;8.40;4.78;;;12.00;71.00;;;;;;4963387;29;20039;-78
2023/12/07 12:34:24;;;;;;;8.23;4.50;;;11.80;71.90;;;;;;4963233;29;20205;-79
2023/12/07 12:36:50;;;;;;;7.03;4.10;;;11.80;71.50;;;;;;4963883;29;20023;-79
2023/12/07 12:39:16;;;;;;;6.47;4.32;;;12.20;71.30;;;;;;4931062;29;20032;-78
2023/12/07 12:41:56;;;;;;;5.43;3.92;;;12.30;70.40;;;;;;4958616;29;20028;-79
2023/12/07 12:44:22;;;;;;;6.70;4.18;;;11.90;69.60;;;;;;4935883;29;20034;-78
2023/12/07 12:47:09;;;;;;;6.75;4.40;;;11.50;71.00;;;;;;4966967;29;20019;-78
2023/12/07 12:49:53;;;;;;;7.20;4.38;;;11.40;71.50;;;;;;4949893;29;20027;-78
2023/12/07 12:52:19;;;;;;;6.75;4.05;;;11.00;72.50;;;;;;4949928;29;20034;-79
2023/12/07 12:55:41;;;;;;;7.45;4.82;;;10.80;73.00;;;;;;4947666;29;20056;-78
2023/12/07 12:58:13;;;;;;;5.88;3.80;;;10.90;73.10;;;;;;4888651;29;20319;-79
2023/12/07 13:00:58;;;;;;;7.35;4.00;;;11.00;73.00;;;;;;4946361;29;20325;-80
2023/12/07 13:03:29;;;;;;;6.82;4.68;;;10.80;73.40;;;;;;4946984;29;20190;-80
2023/12/07 13:06:10;;;;;;;8.50;4.13;;;11.00;72.60;;;;;;4947748;29;20098;-80
2023/12/07 13:08:40;;;;;;;7.47;5.10;;;11.20;72.10;;;;;;4948738;29;20035;-77
2023/12/07 13:11:06;;;;;;;6.70;4.13;;;11.20;72.60;;;;;;4948415;29;20039;-80
2023/12/07 13:13:35;;;;;;;6.25;4.18;;;11.10;73.30;;;;;;4965221;29;20042;-78
2023/12/07 13:16:05;;;;;;;6.20;4.40;;;10.80;73.40;;;;;;4965314;29;20090;-78
2023/12/07 13:22:11;;;;;;;7.85;4.35;;;10.20;74.20;;;;;;4958109;29;20042;-79
2023/12/07 13:24:37;;;;;;;7.28;3.95;;;9.60;74.60;;;;;;4954078;29;20023;-80
2023/12/07 13:27:15;;;;;;;8.07;4.20;;;9.30;75.60;;;;;;4951486;29;20139;-79
2023/12/07 13:29:47;;;;;;;5.63;3.33;;;9.10;76.10;;;;;;4964208;29;20106;-79
2023/12/07 13:32:25;;;;;;;6.88;3.90;;;8.80;76.20;;;;;;4967784;29;20046;-81
2023/12/07 13:34:51;;;;;;;5.93;3.60;;;8.60;77.00;;;;;;4952852;29;20328;-78
2023/12/07 13:37:16;;;;;;;6.82;3.92;;;8.60;77.80;;;;;;4967744;29;20043;-79
2023/12/07 13:39:42;;;;;;;6.45;3.75;;;8.70;77.60;;;;;;4967612;29;20023;-79
2023/12/07 13:42:12;;;;;;;7.15;3.80;;;8.60;77.70;;;;;;4958205;29;20376;-78
2023/12/07 13:44:38;;;;;;;7.97;4.30;;;8.50;77.90;;;;;;4969175;29;20031;-78
2023/12/07 13:47:03;;;;;;;8.95;4.05;;;8.80;77.80;;;;;;4936463;29;20023;-79
2023/12/07 13:49:34;;;;;;;6.85;4.03;;;9.00;77.50;;;;;;4949341;29;20068;-80
2023/12/07 13:52:36;;;;;;;6.72;3.80;;;9.00;76.20;;;;;;4948377;29;20062;-78
2023/12/07 13:55:02;;;;;;;6.53;3.60;;;9.20;76.30;;;;;;4932343;29;20071;-79
2023/12/07 13:57:30;;;;;;;6.32;3.28;;;9.10;76.70;;;;;;4949882;29;20043;-78
2023/12/07 13:59:59;;;;;;;6.05;2.80;;;9.20;75.60;;;;;;4949687;29;20027;-80
2023/12/07 14:03:12;;;;;;;6.00;2.90;;;9.10;73.00;;;;;;4953111;29;20031;-79
2023/12/07 14:05:47;;;;;;;4.72;2.20;;;9.00;74.50;;;;;;4949364;29;20039;-79
2023/12/07 14:34:14;;;;;;;2.58;1.17;;;7.50;71.10;;;;;;4906165;29;20064;-79
2023/12/07 14:48:57;;;;;;;2.83;1.20;;;6.50;73.80;;;;;;4873778;29;20028;-79
2023/12/07 14:54:30;;;;;;;3.63;1.48;;;6.20;75.30;;;;;;4880805;29;20026;-78
2023/12/07 14:58:18;;;;;;;5.10;1.95;;;6.10;76.30;;;;;;4888012;29;20341;-78
2023/12/07 15:00:43;;;;;;;3.72;1.77;;;5.90;76.70;;;;;;4853187;29;20034;-78
2023/12/07 15:03:12;;;;;;;4.78;2.00;;;5.70;77.40;;;;;;4879732;29;20354;-78
2023/12/07 15:05:38;;;;;;;8.52;2.47;;;5.60;78.40;;;;;;4869716;29;20041;-79
2023/12/07 15:08:04;;;;;;;6.50;2.17;;;5.50;78.90;;;;;;4868962;29;20155;-78
2023/12/07 15:10:29;;;;;;;6.20;2.67;;;5.40;79.20;;;;;;4862973;29;20040;-78
2023/12/07 15:13:07;;;;;;;6.03;2.15;;;5.30;79.60;;;;;;4886597;29;20606;-78
2023/12/07 15:15:33;;;;;;;5.00;2.13;;;5.20;80.10;;;;;;4887772;29;20036;-79
2023/12/07 15:17:59;;;;;;;4.68;2.28;;;5.10;80.50;;;;;;4887278;29;20049;-78
2023/12/07 15:20:25;;;;;;;5.57;2.78;;;5.00;80.70;;;;;;4887445;29;20056;-78
2023/12/07 15:22:59;;;;;;;5.75;2.65;;;4.90;81.30;;;;;;4885658;29;20040;-78
2023/12/07 15:25:51;;;;;;;9.38;2.50;;;4.70;81.80;;;;;;4906260;29;20361;-78
2023/12/07 15:28:17;;;;;;;6.10;2.60;;;4.60;83.10;;;;;;4891067;29;20040;-78
2023/12/07 15:30:46;;;;;;;5.72;2.63;;;4.50;83.60;;;;;;4882684;29;20051;-78
2023/12/07 15:33:14;;;;;;;;;;;4.40;83.20;;;;;;4929657;29;20365;-77
2023/12/07 15:35:40;;;;;;;6.65;2.97;;;4.30;83.40;;;;;;4956305;29;19982;-77
2023/12/07 15:38:11;;;;;;;7.75;3.30;;;4.20;84.00;;;;;;4935125;29;20031;-76
2023/12/07 15:40:40;;;;;;;5.60;2.90;;;4.20;84.30;;;;;;4944871;29;20107;-77
2023/12/07 15:43:06;;;;;;;8.02;3.40;;;4.00;84.80;;;;;;4928159;29;20368;-77
2023/12/07 15:45:32;;;;;;;10.98;4.60;;;3.90;85.40;;;;;;4926012;29;20039;-76
2023/12/07 15:47:58;;;;;;;16.75;5.28;;;3.90;86.00;;;;;;4909190;29;20039;-77
2023/12/07 15:50:33;;;;;;;13.43;5.20;;;3.80;86.90;;;;;;4894058;29;20094;-75
2023/12/07 15:52:58;;;;;;;13.40;5.53;;;3.70;86.70;;;;;;4909312;29;20052;-77
2023/12/07 15:55:27;;;;;;;11.80;4.65;;;3.70;87.20;;;;;;4926728;29;20027;-76
2023/12/07 15:57:53;;;;;;;10.77;3.83;;;3.60;86.90;;;;;;4908637;29;20202;-77
2023/12/07 16:00:19;;;;;;;12.95;6.10;;;3.50;87.10;;;;;;4925887;29;20103;-76
2023/12/07 16:02:44;;;;;;;18.35;7.95;;;3.40;87.40;;;;;;4943560;29;20027;-78
2023/12/07 16:05:10;;;;;;;13.95;5.85;;;3.30;88.00;;;;;;4934943;29;20031;-75
2023/12/07 16:07:39;;;;;;;14.10;5.57;;;3.30;88.40;;;;;;4926169;29;20042;-76
2023/12/07 16:10:08;;;;;;;12.82;5.00;;;3.20;89.30;;;;;;4927957;29;20235;-75
2023/12/07 16:12:35;;;;;;;11.68;5.15;;;3.10;89.00;;;;;;4945255;29;20050;-75
2023/12/07 16:15:02;;;;;;;9.95;4.90;;;3.10;89.10;;;;;;4963931;29;20035;-76
2023/12/07 16:17:29;;;;;;;12.18;4.72;;;3.00;89.30;;;;;;4963421;29;20031;-76
2023/12/07 16:19:58;;;;;;;11.35;5.18;;;3.00;89.00;;;;;;4946166;29;20051;-78
2023/12/07 16:22:28;;;;;;;10.32;4.90;;;2.90;89.80;;;;;;4964216;29;20054;-76
2023/12/07 16:24:54;;;;;;;13.90;5.65;;;2.90;90.40;;;;;;4947137;29;20305;-76
2023/12/07 16:27:20;;;;;;;12.80;5.07;;;2.80;90.30;;;;;;4964892;29;20110;-77
2023/12/07 16:29:46;;;;;;;10.95;4.68;;;2.80;89.90;;;;;;4947694;29;20098;-78
2023/12/07 16:32:30;;;;;;;12.50;5.30;;;2.80;89.70;;;;;;4931712;29;20269;-78
2023/12/07 16:35:32;;;;;;;10.50;5.25;;;2.70;89.80;;;;;;4947911;29;20035;-78
2023/12/07 16:37:58;;;;;;;10.90;4.65;;;2.70;89.70;;;;;;4948078;29;20043;-77
2023/12/07 16:40:44;;;;;;;10.38;4.70;;;2.60;90.30;;;;;;4964922;29;20415;-78
2023/12/07 16:43:25;;;;;;;9.05;4.40;;;2.60;90.30;;;;;;4946464;29;20033;-77
2023/12/07 16:45:51;;;;;;;7.75;4.60;;;2.70;90.20;;;;;;4961514;29;20224;-76
2023/12/07 16:48:18;;;;;;;10.77;4.57;;;2.70;90.30;;;;;;4947864;29;20031;-79
2023/12/07 16:50:44;;;;;;;10.18;5.10;;;2.60;90.80;;;;;;4964089;29;20065;-80
2023/12/07 16:53:13;;;;;;;9.18;5.40;;;2.60;90.60;;;;;;4947680;29;20338;-79
2023/12/07 16:55:39;;;;;;;9.43;5.00;;;2.60;90.70;;;;;;4964624;29;20035;-80
2023/12/07 16:58:10;;;;;;;11.45;5.00;;;2.50;90.90;;;;;;4950009;29;20035;-79
2023/12/07 17:00:40;;;;;;;10.95;6.10;;;2.50;90.90;;;;;;4949432;29;20038;-78
2023/12/07 17:03:49;;;;;;;11.18;5.28;;;2.50;91.20;;;;;;4968721;29;20046;-77
2023/12/07 17:06:31;;;;;;;11.50;5.57;;;2.40;91.20;;;;;;4969533;29;20347;-81
2023/12/07 17:09:02;;;;;;;12.60;6.10;;;2.40;91.70;;;;;;4969031;28;20035;-78
2023/12/07 17:11:54;;;;;;;10.57;6.00;;;2.40;91.80;;;;;;4952556;28;20034;-79
2023/12/07 17:14:23;;;;;;;10.70;6.00;;;2.30;91.60;;;;;;4988881;28;20030;-77
2023/12/07 17:17:46;;;;;;;12.05;6.10;;;2.30;91.60;;;;;;4965932;28;20031;-78
2023/12/07 17:20:14;;;;;;;13.50;6.43;;;2.30;91.80;;;;;;4890456;29;20037;-78
2023/12/07 17:22:46;;;;;;;;;;;2.30;92.00;;;;;;4890689;29;20047;-78
2023/12/07 17:28:47;;;;;;;10.90;6.40;;;2.20;92.10;;;;;;4890102;29;20152;-79
2023/12/07 17:31:25;;;;;;;11.90;6.57;;;2.10;92.30;;;;;;4892862;29;20072;-81
2023/12/07 17:33:55;;;;;;;12.02;6.57;;;2.10;92.40;;;;;;4878289;29;20029;-80
2023/12/07 17:36:21;;;;;;;11.55;6.88;;;2.10;92.30;;;;;;4905036;29;20068;-76
2023/12/07 17:38:47;;;;;;;14.52;7.50;;;2.10;92.60;;;;;;4898153;29;20224;-77
2023/12/07 17:41:16;;;;;;;12.68;6.80;;;2.10;92.70;;;;;;4897939;29;20122;-78
2023/12/07 17:43:53;;;;;;;16.75;8.25;;;2.10;92.80;;;;;;4877155;29;20049;-77
2023/12/07 17:46:20;;;;;;;16.67;7.75;;;2.10;92.80;;;;;;4872885;29;20389;-78
2023/12/07 17:49:16;;;;;;;13.77;7.05;;;2.10;92.90;;;;;;4889461;29;20327;-80
2023/12/07 17:52:26;;;;;;;19.67;8.10;;;2.10;93.00;;;;;;4890517;29;20029;-76
2023/12/07 17:54:55;;;;;;;14.88;8.10;;;2.00;93.00;;;;;;4889242;29;20037;-79
2023/12/07 17:57:27;;;;;;;13.45;7.50;;;1.90;93.30;;;;;;4957230;29;20082;-77
2023/12/07 17:59:55;;;;;;;16.83;7.72;;;1.90;93.60;;;;;;4968826;29;20051;-76
2023/12/07 18:02:24;;;;;;;14.18;7.65;;;1.90;93.70;;;;;;4951423;28;20497;-77
2023/12/07 18:04:53;;;;;;;14.13;7.55;;;1.90;93.70;;;;;;4971074;28;20104;-77
2023/12/07 18:07:22;;;;;;;14.52;8.30;;;1.80;93.90;;;;;;4955042;28;20031;-76
2023/12/07 18:09:52;;;;;;;13.35;8.15;;;1.80;94.30;;;;;;4960946;28;20043;-75
2023/12/07 18:12:27;;;;;;;12.63;7.68;;;1.70;94.50;;;;;;4952806;29;20050;-76
2023/12/07 18:15:11;;;;;;;15.02;8.27;;;1.70;94.50;;;;;;4968819;29;20047;-77
2023/12/07 18:17:47;;;;;;;14.98;7.93;;;1.60;94.90;;;;;;4966503;29;20082;-77
2023/12/07 18:20:23;;;;;;;13.32;7.88;;;1.60;94.90;;;;;;4950294;29;20295;-78
2023/12/07 18:22:49;;;;;;;13.05;8.25;;;1.60;95.00;;;;;;4949393;29;20138;-77
2023/12/07 18:25:15;;;;;;;14.40;8.73;;;1.60;95.10;;;;;;4958655;29;20039;-77
2023/12/07 18:28:10;;;;;;;14.05;8.20;;;1.60;94.90;;;;;;4941934;29;20115;-77
2023/12/07 18:30:49;;;;;;;15.48;8.45;;;1.50;95.00;;;;;;4929479;29;20047;-79
2023/12/07 18:33:18;;;;;;;;;;;1.50;95.10;;;;;;4914549;29;20031;-76
2023/12/07 18:35:53;;;;;;;14.10;8.45;;;1.40;95.10;;;;;;4946329;29;20185;-78
2023/12/07 18:38:19;;;;;;;14.98;8.30;;;1.40;95.30;;;;;;4949528;29;20036;-76
2023/12/07 18:40:45;;;;;;;15.27;8.55;;;1.40;95.20;;;;;;4932726;29;20031;-75
2023/12/07 18:43:12;;;;;;;15.35;8.38;;;1.40;95.10;;;;;;4935416;29;20024;-75
2023/12/07 18:45:39;;;;;;;14.97;8.27;;;1.50;95.00;;;;;;4932128;29;20071;-75
2023/12/07 18:48:05;;;;;;;11.77;7.57;;;1.40;95.00;;;;;;4932781;29;20031;-75
2023/12/07 18:50:31;;;;;;;17.65;7.93;;;1.40;94.90;;;;;;4931950;29;20034;-76
2023/12/07 18:52:57;;;;;;;13.93;7.88;;;1.40;95.00;;;;;;4931359;29;20032;-75
2023/12/07 18:55:23;;;;;;;13.70;7.65;;;1.30;94.70;;;;;;4931453;29;20144;-77
2023/12/07 18:57:49;;;;;;;13.15;7.85;;;1.30;95.00;;;;;;4933527;29;20036;-76
2023/12/07 19:00:16;;;;;;;13.57;8.05;;;1.20;95.10;;;;;;4950511;29;20019;-75
2023/12/07 19:02:43;;;;;;;14.25;7.63;;;1.20;95.20;;;;;;4966533;29;20031;-75
2023/12/07 19:05:09;;;;;;;14.85;7.80;;;1.20;95.40;;;;;;4934697;29;20030;-77
2023/12/07 19:07:35;;;;;;;14.85;8.13;;;1.10;95.30;;;;;;4949991;29;20023;-76
2023/12/07 19:10:05;;;;;;;13.63;7.97;;;1.10;95.50;;;;;;4934688;29;20039;-77
2023/12/07 19:12:31;;;;;;;12.85;7.50;;;1.10;95.70;;;;;;4934903;29;20059;-77
2023/12/07 19:14:58;;;;;;;15.80;8.40;;;1.10;95.80;;;;;;4934844;29;20142;-76
2023/12/07 19:17:24;;;;;;;13.45;7.88;;;1.00;96.30;;;;;;4933623;29;20042;-74
2023/12/07 19:19:50;;;;;;;11.27;7.57;;;1.00;96.10;;;;;;4966136;28;20032;-78
2023/12/07 19:22:16;;;;;;;16.80;8.55;;;1.10;95.90;;;;;;4949112;29;20037;-76
2023/12/07 19:24:42;;;;;;;12.90;7.80;;;1.10;95.90;;;;;;4957250;28;20309;-76
2023/12/07 19:27:07;;;;;;;14.70;8.30;;;1.10;95.60;;;;;;4964216;29;20019;-75
2023/12/07 19:29:33;;;;;;;14.20;7.97;;;1.20;95.60;;;;;;4958015;29;20245;-76
2023/12/07 19:31:59;;;;;;;12.90;7.65;;;1.20;95.60;;;;;;4929630;29;20027;-76
2023/12/07 19:34:26;;;;;;;17.05;7.90;;;1.20;95.90;;;;;;4927736;29;20113;-75
2023/12/07 19:36:56;;;;;;;15.70;7.60;;;1.30;95.30;;;;;;4948713;29;20309;-76
2023/12/07 19:39:22;;;;;;;13.55;7.72;;;1.40;95.00;;;;;;4945603;29;20051;-78
2023/12/07 19:41:49;;;;;;;15.60;7.55;;;1.50;94.80;;;;;;4963756;28;20019;-76
2023/12/07 19:44:15;;;;;;;13.70;7.90;;;1.50;94.80;;;;;;4949040;29;20019;-76
2023/12/07 19:46:42;;;;;;;12.15;7.38;;;1.70;94.60;;;;;;4948773;29;20073;-77
2023/12/07 19:49:08;;;;;;;13.07;7.50;;;1.70;94.40;;;;;;4932996;29;20058;-77
2023/12/07 19:51:35;;;;;;;11.93;6.90;;;1.70;94.40;;;;;;4933003;29;20094;-75
2023/12/07 19:54:01;;;;;;;15.70;8.90;;;1.70;94.40;;;;;;4933605;29;20368;-75
2023/12/07 19:56:29;;;;;;;10.20;5.93;;;1.70;94.50;;;;;;4948289;29;20328;-77
2023/12/07 19:58:55;;;;;;;13.18;8.07;;;1.80;94.50;;;;;;4956612;29;20246;-76
2023/12/07 20:01:24;;;;;;;14.95;8.15;;;1.80;94.60;;;;;;4940107;29;20023;-77
2023/12/07 20:03:49;;;;;;;14.68;7.30;;;1.80;94.60;;;;;;4965314;28;20027;-76
2023/12/07 20:06:15;;;;;;;14.48;8.15;;;1.80;94.50;;;;;;4948970;29;20285;-76
2023/12/07 20:08:41;;;;;;;14.15;8.18;;;1.80;94.50;;;;;;4948366;29;20073;-75
2023/12/07 20:11:07;;;;;;;15.18;7.65;;;1.90;94.50;;;;;;4964019;29;20027;-77
2023/12/07 20:13:33;;;;;;;13.15;7.43;;;1.90;94.30;;;;;;4953089;29;20051;-76
2023/12/07 20:15:59;;;;;;;12.40;7.93;;;1.90;94.50;;;;;;4964679;29;20309;-76
2023/12/07 20:18:29;;;;;;;14.48;8.35;;;1.90;94.70;;;;;;4929094;29;20035;-75
2023/12/07 20:20:55;;;;;;;14.15;7.43;;;2.00;94.30;;;;;;4928619;29;20083;-77
2023/12/07 20:23:21;;;;;;;12.95;8.27;;;2.00;94.30;;;;;;4928783;29;20324;-77
2023/12/07 20:25:47;;;;;;;15.50;8.13;;;2.00;94.00;;;;;;4944362;29;20071;-75